Time;durP1;ratioP1;P1;durP2;ratioP2;P2;SDS_P1;SDS_P2;PMS_P1;PMS_P2;Temp;Humidity;BMP_temperature;BMP_pressure;BME280_temperature;BME280_humidity;BME280_pressure;Samples;Min_cycle;Max_cycle;Signal;HPM_P1;HPM_P2
2022/12/27 00:01:56;;;;;;;13.43;3.88;;;;;;;4.41;76.27;101935.00;3609561;39;20073;-63
2022/12/27 00:04:21;;;;;;;11.60;3.65;;;;;;;4.60;76.12;101959.50;3612254;39;20055;-63
2022/12/27 00:06:47;;;;;;;7.47;5.03;;;;;;;4.59;76.26;101973.72;3609135;39;20070;-63
2022/12/27 00:09:13;;;;;;;9.45;3.90;;;;;;;4.59;76.12;101981.69;3609822;39;20377;-65
2022/12/27 00:11:38;;;;;;;8.38;3.83;;;;;;;4.60;76.13;101976.34;3609113;39;20057;-64
2022/12/27 00:14:06;;;;;;;9.73;4.50;;;;;;;4.63;76.01;101983.38;3613961;39;20046;-63
2022/12/27 00:16:33;;;;;;;12.18;4.65;;;;;;;4.50;76.08;101963.22;3610350;39;20090;-63
2022/12/27 00:18:59;;;;;;;10.13;3.80;;;;;;;4.59;76.38;101984.34;3606763;39;20066;-64
2022/12/27 00:21:26;;;;;;;10.15;3.47;;;;;;;4.60;76.48;101978.16;3608278;39;20065;-63
2022/12/27 00:23:56;;;;;;;9.18;3.85;;;;;;;4.62;76.49;101986.97;3608045;39;20468;-63
2022/12/27 00:26:27;;;;;;;9.10;3.40;;;;;;;4.64;76.14;101985.16;3609902;39;20340;-63
2022/12/27 00:28:54;;;;;;;14.38;4.97;;;;;;;4.63;76.43;101980.72;3610833;39;20119;-64
2022/12/27 00:31:22;;;;;;;8.00;4.10;;;;;;;4.61;76.09;101975.44;3608146;39;20055;-63
2022/12/27 00:33:50;;;;;;;10.13;3.47;;;;;;;4.63;76.40;101986.06;3609394;39;20350;-63
2022/12/27 00:36:23;;;;;;;9.32;3.85;;;;;;;4.63;76.47;101981.63;3608291;39;20136;-64
2022/12/27 00:38:50;;;;;;;11.63;3.83;;;;;;;4.61;76.94;101980.75;3609125;39;20105;-64
2022/12/27 00:41:17;;;;;;;8.32;3.50;;;;;;;4.63;76.59;101980.72;3610448;39;20051;-64
2022/12/27 00:43:44;;;;;;;10.38;3.95;;;;;;;4.61;76.86;101978.09;3605743;39;20377;-64
2022/12/27 00:46:10;;;;;;;6.32;3.28;;;;;;;4.62;77.02;101981.63;3612302;39;20123;-64
2022/12/27 00:48:36;;;;;;;10.05;3.53;;;;;;;4.64;76.75;101971.84;3610546;39;20068;-63
2022/12/27 00:51:10;;;;;;;11.07;3.42;;;;;;;4.66;76.75;101988.66;3612656;39;20053;-63
2022/12/27 00:53:36;;;;;;;8.32;3.75;;;;;;;4.64;76.79;101985.16;3606190;39;20050;-63
2022/12/27 00:56:08;;;;;;;9.55;3.33;;;;;;;4.54;77.04;101971.16;3612779;39;20057;-63
2022/12/27 00:58:36;;;;;;;7.18;3.40;;;;;;;4.69;77.23;101991.25;3609875;39;20069;-64
2022/12/27 01:01:18;;;;;;;8.70;3.60;;;;;;;4.71;76.96;102005.44;3605065;39;20056;-64
2022/12/27 01:03:45;;;;;;;9.52;3.20;;;;;;;4.72;77.18;102003.66;3607897;39;20070;-64
2022/12/27 01:06:15;;;;;;;10.50;3.75;;;;;;;4.70;76.93;102011.69;3609964;39;20053;-63
2022/12/27 01:08:42;;;;;;;14.80;3.75;;;;;;;4.56;77.26;101979.09;3610476;39;21376;-63
2022/12/27 01:11:09;;;;;;;8.73;3.10;;;;;;;4.71;77.49;102013.44;3610344;39;20066;-64
2022/12/27 01:13:37;;;;;;;7.00;3.38;;;;;;;4.63;77.15;102010.03;3604949;39;21862;-64
2022/12/27 01:16:16;;;;;;;11.60;3.53;;;;;;;4.71;77.47;102018.75;3605297;39;20054;-63
2022/12/27 01:18:42;;;;;;;11.55;3.55;;;;;;;4.73;77.35;102024.94;3604689;39;20073;-64
2022/12/27 01:21:12;;;;;;;9.30;3.35;;;;;;;4.68;77.41;102017.94;3608341;39;20051;-63
2022/12/27 01:23:39;;;;;;;8.88;3.17;;;;;;;4.73;77.43;102019.63;3607690;39;20055;-64
2022/12/27 01:26:10;;;;;;;10.35;3.72;;;;;;;4.74;77.65;102023.16;3607517;39;20059;-64
2022/12/27 01:28:35;;;;;;;7.05;3.25;;;;;;;4.71;77.29;102020.56;3608511;39;20058;-63
2022/12/27 01:31:12;;;;;;;8.35;3.70;;;;;;;4.72;77.76;102028.50;3612856;39;20062;-63
2022/12/27 01:33:38;;;;;;;10.02;3.28;;;;;;;4.70;77.57;102035.66;3604569;39;20057;-64
2022/12/27 01:36:11;;;;;;;8.27;3.13;;;;;;;4.71;78.23;102042.72;3609613;39;20047;-64
2022/12/27 01:38:37;;;;;;;;;;;;;;;4.70;78.32;102033.00;3609006;39;20055;-63
2022/12/27 01:42:50;;;;;;;8.90;3.63;;;;;;;4.68;78.25;102032.13;3607523;39;20409;-64
2022/12/27 01:43:49;;;;;;;10.52;3.45;;;;;;;4.71;78.17;102040.06;3609946;39;20073;-64
2022/12/27 01:46:15;;;;;;;10.45;3.90;;;;;;;4.70;78.53;102040.09;3609543;39;20090;-63
2022/12/27 01:48:41;;;;;;;11.60;4.40;;;;;;;4.71;78.73;102037.41;3610385;39;20066;-63
2022/12/27 01:51:09;;;;;;;15.23;4.32;;;;;;;4.72;78.27;102044.47;3609277;39;20089;-64
2022/12/27 01:53:42;;;;;;;7.78;2.88;;;;;;;4.73;78.96;102040.06;3607790;39;20098;-63
2022/12/27 01:56:30;;;;;;;7.93;3.50;;;;;;;4.74;78.77;102048.00;3606866;39;20346;-64
2022/12/27 01:59:11;;;;;;;7.32;3.15;;;;;;;4.75;78.82;102057.75;3609034;39;20051;-63
2022/12/27 02:01:45;;;;;;;9.27;2.88;;;;;;;4.74;78.88;102058.66;3609313;39;20058;-64
2022/12/27 02:04:27;;;;;;;6.55;3.47;;;;;;;4.75;79.04;102065.72;3610592;39;20055;-64
2022/12/27 02:06:54;;;;;;;11.73;3.53;;;;;;;4.80;78.98;102063.00;3607894;39;20482;-63
2022/12/27 02:09:37;;;;;;;9.90;3.10;;;;;;;4.80;78.76;102063.00;3604070;39;20135;-64
2022/12/27 02:12:07;;;;;;;7.60;3.40;;;;;;;4.79;79.07;102072.78;3606678;39;20098;-64
2022/12/27 02:14:39;;;;;;;8.38;3.10;;;;;;;4.76;79.34;102070.19;3606572;39;20055;-63
2022/12/27 02:17:34;;;;;;;10.18;3.28;;;;;;;4.77;79.26;102068.38;3609159;39;20051;-64
2022/12/27 02:20:15;;;;;;;7.75;3.13;;;;;;;4.78;79.17;102071.00;3600177;39;20652;-64
2022/12/27 02:26:03;;;;;;;8.35;3.08;;;;;;;4.74;79.57;102063.97;3608365;39;20065;-65
2022/12/27 02:28:32;;;;;;;9.30;2.75;;;;;;;4.76;79.87;102067.50;3604788;39;20289;-64
2022/12/27 02:31:48;;;;;;;8.63;2.92;;;;;;;4.77;80.10;102069.25;3609857;39;20051;-64
2022/12/27 02:34:49;;;;;;;7.30;3.15;;;;;;;4.77;80.29;102077.25;3608946;39;20059;-64
2022/12/27 02:37:15;;;;;;;13.50;3.10;;;;;;;4.78;80.29;102076.34;3606489;39;20058;-64
2022/12/27 02:39:48;;;;;;;7.22;2.65;;;;;;;4.80;80.10;102069.22;3604689;39;20059;-63
2022/12/27 02:54:20;;;;;;;8.68;3.28;;;;;;;4.83;80.37;102077.16;3605255;39;20173;-63
2022/12/27 02:57:32;;;;;;;10.90;3.40;;;;;;;4.85;80.27;102078.00;3608272;39;20057;-64
2022/12/27 03:03:38;;;;;;;6.22;2.35;;;;;;;4.86;80.63;102074.44;3608585;39;20057;-63
2022/12/27 03:06:38;;;;;;;;;;;;;;;4.86;80.42;102063.78;3609624;39;20078;-63
2022/12/27 03:16:18;;;;;;;9.55;2.42;;;;;;;4.97;80.32;102068.00;3609389;39;20049;-63
2022/12/27 03:25:26;;;;;;;6.95;2.60;;;;;;;4.80;80.55;102041.69;3606856;39;21893;-63
2022/12/27 03:33:35;;;;;;;11.18;2.97;;;;;;;5.06;80.53;102107.81;3613253;39;20123;-63
2022/12/27 03:39:32;;;;;;;9.70;3.35;;;;;;;5.05;80.73;102101.63;3611143;39;20112;-63
2022/12/27 03:44:54;;;;;;;8.82;3.40;;;;;;;5.03;80.87;102113.19;3608549;39;20309;-63
2022/12/27 03:47:34;;;;;;;9.07;2.67;;;;;;;5.01;81.03;102110.59;3606322;39;20050;-64
2022/12/27 03:50:19;;;;;;;11.23;4.25;;;;;;;5.01;80.85;102113.25;3607904;39;20054;-63
2022/12/27 03:52:56;;;;;;;7.70;3.05;;;;;;;5.01;80.47;102115.00;3608689;39;20374;-63
2022/12/27 03:55:23;;;;;;;9.73;3.25;;;;;;;4.23;80.79;101992.09;3607088;39;20119;-63
2022/12/27 03:57:50;;;;;;;6.53;2.47;;;;;;;4.96;80.98;102123.09;3610177;39;20294;-63
2022/12/27 04:00:16;;;;;;;10.38;3.22;;;;;;;4.92;80.93;102120.53;3601205;39;20055;-64
2022/12/27 04:02:42;;;;;;;9.48;2.97;;;;;;;4.93;81.14;102122.28;3606713;39;20647;-63
2022/12/27 04:05:08;;;;;;;8.93;4.28;;;;;;;4.89;81.61;102122.31;3610942;39;20058;-64
2022/12/27 04:07:34;;;;;;;8.35;3.28;;;;;;;4.93;81.39;102122.28;3608993;39;20043;-63
2022/12/27 04:34:42;;;;;;;10.10;2.80;;;;;;;4.85;81.50;102117.97;3608435;39;20309;-62
2022/12/27 04:37:18;;;;;;;9.18;2.88;;;;;;;4.84;80.94;102124.19;3610624;39;20046;-63
2022/12/27 04:56:14;;;;;;;9.00;2.40;;;;;;;4.56;81.31;102090.94;3615220;39;20469;-63
2022/12/27 05:02:01;;;;;;;8.38;2.50;;;;;;;4.77;81.50;102125.19;3617438;39;20055;-63
2022/12/27 05:04:10;;;;;;;8.98;2.50;;;;;;;4.77;81.59;102143.84;3606435;39;20061;-63
2022/12/27 05:06:36;;;;;;;13.25;2.75;;;;;;;4.75;81.41;102145.63;3606270;39;20050;-63
2022/12/27 05:13:58;;;;;;;11.05;3.03;;;;;;;4.76;81.64;102134.09;3605052;39;20053;-63
2022/12/27 05:14:44;;;;;;;10.70;2.50;;;;;;;4.72;81.41;102136.81;3608103;39;20390;-63
2022/12/27 05:17:09;;;;;;;8.65;2.33;;;;;;;4.73;81.27;102144.81;3605448;39;20051;-63
2022/12/27 05:19:35;;;;;;;5.45;2.53;;;;;;;4.71;81.38;102138.63;3607107;39;20050;-63
2022/12/27 05:27:29;;;;;;;9.27;3.30;;;;;;;4.71;81.85;102146.59;3606948;39;20139;-62
2022/12/27 05:29:54;;;;;;;6.10;2.67;;;;;;;4.75;81.85;102144.75;3603281;39;20381;-62
2022/12/27 05:32:20;;;;;;;8.63;3.08;;;;;;;4.77;81.74;102149.19;3605077;39;20066;-62
2022/12/27 05:34:45;;;;;;;7.43;2.50;;;;;;;4.78;81.94;102161.56;3605178;39;20344;-63
2022/12/27 05:37:11;;;;;;;6.88;2.38;;;;;;;4.78;81.31;102172.22;3606908;39;20047;-62
2022/12/27 05:39:36;;;;;;;10.65;2.70;;;;;;;4.79;81.67;102174.00;3606156;39;20067;-62
2022/12/27 05:42:02;;;;;;;11.48;3.00;;;;;;;4.76;81.21;102171.41;3607085;39;20694;-62
2022/12/27 05:44:28;;;;;;;8.27;2.78;;;;;;;4.78;81.44;102177.56;3606860;39;20130;-62
2022/12/27 05:46:54;;;;;;;6.95;2.88;;;;;;;4.67;81.45;102165.34;3609475;39;20386;-63
2022/12/27 05:49:20;;;;;;;7.40;2.80;;;;;;;4.77;81.25;102183.81;3606949;39;20095;-62
2022/12/27 05:51:46;;;;;;;8.82;3.30;;;;;;;4.74;81.14;102180.31;3606498;39;20051;-62
2022/12/27 05:54:12;;;;;;;5.60;2.53;;;;;;;4.73;81.33;102192.75;3607068;39;20085;-62
2022/12/27 05:56:38;;;;;;;13.05;3.33;;;;;;;4.71;81.39;102199.88;3606492;39;20059;-62
2022/12/27 05:59:05;;;;;;;8.00;2.50;;;;;;;4.68;80.95;102197.25;3608494;39;20046;-63
2022/12/27 06:01:31;;;;;;;9.02;2.50;;;;;;;4.65;81.48;102197.31;3605539;39;20142;-62
2022/12/27 06:03:56;;;;;;;9.13;3.05;;;;;;;4.64;81.40;102201.75;3609249;39;20393;-62
2022/12/27 06:06:22;;;;;;;7.75;2.63;;;;;;;4.53;81.38;102192.16;3607137;39;20058;-62
2022/12/27 06:08:47;;;;;;;10.23;2.95;;;;;;;4.61;81.74;102200.94;3609641;39;20062;-63
2022/12/27 06:11:18;;;;;;;6.53;2.47;;;;;;;4.58;81.84;102204.50;3608352;39;20062;-63
2022/12/27 06:13:52;;;;;;;8.40;3.40;;;;;;;4.53;81.43;102198.34;3608297;39;20058;-63
2022/12/27 06:16:21;;;;;;;14.35;3.00;;;;;;;4.53;80.92;102203.69;3609146;39;20262;-62
2022/12/27 06:18:46;;;;;;;10.35;2.25;;;;;;;4.51;81.18;102200.19;3609113;39;20102;-62
2022/12/27 06:21:17;;;;;;;9.57;2.97;;;;;;;4.49;81.40;102206.44;3608478;39;20058;-62
2022/12/27 06:23:45;;;;;;;7.50;2.22;;;;;;;4.44;81.24;102203.84;3607746;39;20148;-62
2022/12/27 06:26:19;;;;;;;14.10;3.33;;;;;;;4.42;82.04;102195.00;3608149;39;20059;-63
2022/12/27 06:28:48;;;;;;;8.80;2.85;;;;;;;4.28;82.08;102173.91;3606143;39;20405;-62
2022/12/27 06:31:15;;;;;;;15.35;4.47;;;;;;;4.39;82.52;102201.22;3607687;39;20050;-62
2022/12/27 06:33:41;;;;;;;15.23;6.93;;;;;;;4.37;82.20;102205.69;3609848;39;20319;-63
2022/12/27 06:36:13;;;;;;;12.55;6.57;;;;;;;4.35;82.00;102215.50;3608978;39;20096;-63
2022/12/27 06:38:40;;;;;;;16.40;7.15;;;;;;;4.35;82.38;102204.84;3608074;39;20059;-63
2022/12/27 06:41:10;;;;;;;12.82;7.13;;;;;;;4.34;82.48;102207.50;3604509;39;20066;-62
2022/12/27 06:43:37;;;;;;;10.27;5.30;;;;;;;4.30;82.41;102201.34;3606249;39;20464;-62
2022/12/27 06:46:06;;;;;;;8.85;3.83;;;;;;;4.30;82.42;102211.13;3610329;39;20058;-62
2022/12/27 06:48:32;;;;;;;10.48;3.28;;;;;;;4.29;82.32;102207.59;3608896;39;20047;-63
2022/12/27 06:50:58;;;;;;;10.98;3.08;;;;;;;4.26;81.97;102204.09;3604686;39;20481;-63
2022/12/27 06:53:24;;;;;;;12.70;3.80;;;;;;;4.21;81.85;102212.13;3608172;39;20063;-63
2022/12/27 06:55:49;;;;;;;7.57;3.22;;;;;;;4.18;82.28;102213.03;3609040;39;20388;-63
2022/12/27 06:58:15;;;;;;;6.65;3.47;;;;;;;4.16;82.18;102211.31;3607497;39;20313;-63
2022/12/27 07:00:41;;;;;;;11.07;3.47;;;;;;;4.15;82.77;102217.53;3610120;39;20132;-63
2022/12/27 07:03:06;;;;;;;10.20;3.80;;;;;;;4.13;82.88;102204.25;3606080;39;20047;-62
2022/12/27 07:05:37;;;;;;;9.38;3.50;;;;;;;4.12;83.22;102205.16;3607308;39;20062;-63
2022/12/27 07:08:04;;;;;;;8.10;3.10;;;;;;;4.11;83.11;102216.69;3606759;39;20063;-62
2022/12/27 07:10:29;;;;;;;10.88;3.25;;;;;;;4.12;83.42;102217.56;3607171;39;20490;-63
2022/12/27 07:12:57;;;;;;;9.48;3.50;;;;;;;4.15;83.62;102222.84;3608955;39;20059;-63
2022/12/27 07:15:23;;;;;;;10.68;3.38;;;;;;;4.00;83.60;102201.78;3607052;39;20322;-63
2022/12/27 07:17:49;;;;;;;10.02;3.70;;;;;;;4.15;83.60;102223.75;3611532;39;20063;-63
2022/12/27 07:20:15;;;;;;;11.93;3.97;;;;;;;4.17;84.33;102231.69;3612150;39;20128;-63
2022/12/27 07:22:40;;;;;;;11.00;3.50;;;;;;;4.19;84.53;102225.47;3605805;39;20332;-62
2022/12/27 07:25:06;;;;;;;17.48;3.60;;;;;;;4.21;84.30;102232.53;3608354;39;20051;-63
2022/12/27 07:27:34;;;;;;;8.27;3.22;;;;;;;4.24;84.39;102238.69;3607639;39;20038;-63
2022/12/27 07:29:59;;;;;;;8.73;3.50;;;;;;;4.28;84.60;102224.47;3607144;39;20051;-63
2022/12/27 07:32:25;;;;;;;12.63;3.88;;;;;;;4.29;84.34;102239.53;3606750;39;20074;-63
2022/12/27 07:34:50;;;;;;;15.30;3.83;;;;;;;4.29;84.08;102239.53;3609323;39;20051;-62
2022/12/27 07:37:16;;;;;;;6.00;3.22;;;;;;;4.24;84.14;102220.06;3607855;39;20071;-62
2022/12/27 07:39:43;;;;;;;6.93;3.13;;;;;;;4.40;84.28;102240.25;3604756;39;20058;-62
2022/12/27 07:42:09;;;;;;;9.82;3.70;;;;;;;4.36;83.95;102243.88;3607129;39;20050;-63
2022/12/27 07:44:34;;;;;;;9.25;3.78;;;;;;;4.42;83.49;102235.81;3608123;39;20139;-64
2022/12/27 07:47:00;;;;;;;8.07;3.78;;;;;;;3.68;83.67;102125.94;3608100;39;20124;-64
2022/12/27 07:49:25;;;;;;;8.90;3.80;;;;;;;4.42;83.58;102237.59;3605189;39;20364;-64
2022/12/27 07:51:51;;;;;;;9.20;3.55;;;;;;;4.43;83.70;102240.22;3606547;39;20051;-64
2022/12/27 07:54:17;;;;;;;10.82;3.70;;;;;;;4.42;83.59;102243.78;3606478;39;20046;-64
2022/12/27 07:56:42;;;;;;;12.38;4.07;;;;;;;4.42;83.64;102238.47;3605999;39;20098;-65
2022/12/27 07:59:11;;;;;;;13.82;4.00;;;;;;;4.43;83.50;102244.66;3608954;39;20077;-64
2022/12/27 08:04:23;;;;;;;8.85;3.58;;;;;;;4.43;83.80;102256.19;3606162;39;20079;-64
2022/12/27 08:06:49;;;;;;;10.32;3.70;;;;;;;4.47;83.40;102248.16;3606843;39;20091;-64
2022/12/27 08:09:26;;;;;;;9.15;4.00;;;;;;;4.47;83.76;102258.81;3605498;39;20374;-65
2022/12/27 08:11:52;;;;;;;10.43;3.88;;;;;;;4.50;83.53;102254.31;3593707;39;20055;-64
2022/12/27 08:14:18;;;;;;;9.65;4.00;;;;;;;4.54;83.55;102257.84;3607898;39;20057;-65
2022/12/27 08:16:43;;;;;;;7.68;3.30;;;;;;;4.57;83.62;102265.78;3606647;39;20420;-65
2022/12/27 08:19:09;;;;;;;6.85;3.90;;;;;;;4.58;83.26;102268.44;3603992;39;20055;-65
2022/12/27 08:21:34;;;;;;;10.55;3.97;;;;;;;4.60;83.41;102277.28;3604811;39;20067;-65
2022/12/27 08:24:00;;;;;;;6.45;3.60;;;;;;;4.66;83.28;102268.31;3607520;39;20370;-64
2022/12/27 08:26:25;;;;;;;9.70;4.45;;;;;;;4.64;83.30;102275.47;3606662;39;20047;-64
2022/12/27 08:28:51;;;;;;;12.60;4.28;;;;;;;4.68;83.01;102279.81;3607300;39;20090;-63
2022/12/27 08:31:17;;;;;;;9.50;3.80;;;;;;;4.74;83.10;102277.09;3608081;39;20058;-64
2022/12/27 08:33:43;;;;;;;6.93;3.90;;;;;;;4.77;83.00;102277.03;3607601;39;20059;-64
2022/12/27 08:36:11;;;;;;;11.10;3.92;;;;;;;4.79;82.53;102277.91;3609950;39;20050;-64
2022/12/27 08:38:37;;;;;;;10.30;4.35;;;;;;;4.80;82.32;102276.13;3605355;39;20055;-64
2022/12/27 08:41:03;;;;;;;6.95;3.55;;;;;;;4.79;82.50;102269.00;3608101;39;20784;-64
2022/12/27 08:43:29;;;;;;;7.75;3.70;;;;;;;4.82;82.38;102269.88;3606351;39;20087;-63
2022/12/27 08:46:05;;;;;;;11.93;3.70;;;;;;;4.84;82.63;102264.50;3606060;39;20059;-64
2022/12/27 08:48:32;;;;;;;8.27;3.90;;;;;;;4.85;82.30;102266.25;3606370;39;20047;-64
2022/12/27 08:51:07;;;;;;;11.73;3.95;;;;;;;4.91;82.67;102263.50;3605842;39;20051;-64
2022/12/27 08:53:33;;;;;;;11.50;3.90;;;;;;;4.94;83.01;102257.25;3603739;39;20056;-64
2022/12/27 08:55:59;;;;;;;6.70;3.40;;;;;;;4.97;82.71;102262.53;3607861;39;20043;-64
2022/12/27 08:58:25;;;;;;;7.18;3.83;;;;;;;4.99;82.55;102258.94;3606956;39;20050;-64
2022/12/27 09:00:51;;;;;;;10.32;4.20;;;;;;;5.03;82.30;102267.78;3606165;39;20392;-62
2022/12/27 09:03:20;;;;;;;10.23;3.53;;;;;;;5.04;82.56;102269.53;3607138;39;20050;-64
2022/12/27 09:05:50;;;;;;;9.57;3.65;;;;;;;5.07;82.57;102274.81;3606514;39;20128;-64
2022/12/27 09:08:16;;;;;;;11.45;3.58;;;;;;;5.13;82.41;102269.38;3606192;39;20047;-63
2022/12/27 09:10:42;;;;;;;6.68;3.58;;;;;;;5.15;82.34;102267.56;3606699;39;20066;-64
2022/12/27 09:13:07;;;;;;;8.73;3.42;;;;;;;5.19;81.72;102263.94;3606293;39;20058;-64
2022/12/27 09:15:33;;;;;;;9.52;4.05;;;;;;;5.19;81.43;102263.94;3606314;39;20507;-64
2022/12/27 09:18:00;;;;;;;11.30;4.15;;;;;;;5.20;81.86;102265.72;3608777;39;20067;-63
2022/12/27 09:20:25;;;;;;;7.53;3.67;;;;;;;5.25;81.64;102263.84;3606461;39;20329;-64
2022/12/27 09:22:51;;;;;;;7.57;3.35;;;;;;;5.31;81.43;102269.09;3605647;39;20057;-64
2022/12/27 09:25:17;;;;;;;8.57;3.33;;;;;;;5.34;81.86;102268.16;3605764;39;20061;-64
2022/12/27 09:27:42;;;;;;;5.80;3.05;;;;;;;5.38;82.15;102263.66;3608615;39;20047;-64
2022/12/27 09:30:09;;;;;;;8.70;3.10;;;;;;;5.46;81.63;102267.06;3604447;39;20294;-64
2022/12/27 09:32:35;;;;;;;8.43;3.40;;;;;;;5.50;81.96;102269.66;3605251;39;20071;-64
2022/12/27 09:35:02;;;;;;;6.82;3.35;;;;;;;5.56;82.11;102279.34;3608879;39;20058;-64
2022/12/27 09:37:27;;;;;;;9.45;3.60;;;;;;;5.64;81.71;102277.41;3606248;39;20404;-64
2022/12/27 09:39:53;;;;;;;7.68;3.33;;;;;;;5.73;81.56;102281.69;3603536;39;20059;-64
2022/12/27 09:42:54;;;;;;;6.20;2.92;;;;;;;5.79;81.26;102285.13;3605441;39;20079;-64
2022/12/27 09:45:32;;;;;;;11.48;3.78;;;;;;;5.86;81.37;102277.00;3607140;39;20063;-64
2022/12/27 09:48:14;;;;;;;9.57;3.17;;;;;;;5.94;80.64;102284.00;3603245;39;20383;-64
2022/12/27 09:50:56;;;;;;;9.07;2.95;;;;;;;6.04;80.48;102282.03;3606536;39;20063;-64
2022/12/27 09:53:45;;;;;;;10.82;3.72;;;;;;;5.92;80.04;102250.19;3606041;39;20494;-64
2022/12/27 09:56:19;;;;;;;8.68;3.20;;;;;;;6.23;79.40;102290.56;3606371;39;20043;-64
2022/12/27 09:59:13;;;;;;;7.55;2.90;;;;;;;6.36;79.74;102286.72;3610814;39;20062;-64
2022/12/27 10:01:39;;;;;;;11.40;3.47;;;;;;;6.48;78.84;102274.91;3609334;39;20071;-64
2022/12/27 10:04:12;;;;;;;9.02;3.05;;;;;;;6.71;77.87;102285.06;3609823;39;20066;-64
2022/12/27 10:06:47;;;;;;;8.48;3.17;;;;;;;6.88;77.35;102284.69;3612570;39;20047;-64
2022/12/27 10:09:41;;;;;;;9.40;3.05;;;;;;;7.03;76.76;102295.03;3610455;39;20063;-64
2022/12/27 10:12:52;;;;;;;7.47;2.75;;;;;;;7.24;76.10;102293.66;3610595;39;20114;-64
2022/12/27 10:15:24;;;;;;;7.90;3.45;;;;;;;7.42;75.45;102286.94;3596308;39;20394;-64
2022/12/27 10:18:40;;;;;;;8.00;3.28;;;;;;;7.61;75.23;102296.28;3610995;39;20043;-65
2022/12/27 10:21:24;;;;;;;7.55;2.80;;;;;;;7.84;73.27;102295.66;3612575;39;20070;-65
2022/12/27 10:23:58;;;;;;;;;;;;;;;8.01;73.70;102289.84;3610529;39;20127;-64
2022/12/27 10:26:25;;;;;;;;;;;;;;;8.22;72.45;102284.81;3607561;39;20298;-64
2022/12/27 10:29:02;;;;;;;11.70;3.30;;;;;;;8.40;72.00;102273.59;3606596;39;19931;-64
2022/12/27 10:31:31;;;;;;;6.35;2.90;;;;;;;8.45;71.33;102279.69;3609025;39;20047;-65
2022/12/27 10:33:58;;;;;;;8.35;2.80;;;;;;;8.59;71.11;102288.22;3609271;39;20085;-63
2022/12/27 10:36:29;;;;;;;6.53;2.83;;;;;;;8.71;70.62;102278.03;3608614;39;20085;-64
2022/12/27 10:38:55;;;;;;;7.53;3.40;;;;;;;8.74;70.10;102264.53;3609807;39;20066;-63
2022/12/27 10:41:42;;;;;;;7.05;2.42;;;;;;;9.00;69.11;102280.66;3611886;39;20059;-63
2022/12/27 10:44:11;;;;;;;7.40;2.67;;;;;;;9.09;68.69;102284.00;3604929;39;20094;-64
2022/12/27 10:46:39;;;;;;;5.35;2.83;;;;;;;9.21;68.94;102276.41;3608315;39;20345;-64
2022/12/27 10:49:43;;;;;;;8.25;2.92;;;;;;;9.30;67.63;102269.88;3608523;39;20054;-64
2022/12/27 10:52:21;;;;;;;7.07;3.10;;;;;;;9.43;67.77;102273.91;3607911;39;20059;-63
2022/12/27 10:54:55;;;;;;;8.70;2.65;;;;;;;9.62;67.04;102290.25;3608669;39;20378;-64
2022/12/27 10:57:33;;;;;;;8.90;2.78;;;;;;;9.63;66.59;102250.84;3611385;39;20059;-64
2022/12/27 11:00:22;;;;;;;7.43;2.70;;;;;;;9.75;66.31;102293.41;3611679;39;20042;-64
2022/12/27 11:02:51;;;;;;;6.60;2.72;;;;;;;9.59;66.36;102293.06;3609603;39;20397;-64
2022/12/27 11:05:24;;;;;;;10.48;2.90;;;;;;;9.45;67.10;102285.47;3607406;39;20057;-63
2022/12/27 11:07:51;;;;;;;9.48;2.97;;;;;;;9.19;67.27;102266.66;3605617;39;20420;-64
2022/12/27 11:10:21;;;;;;;8.25;2.65;;;;;;;9.18;68.62;102281.88;3612787;39;20059;-64
2022/12/27 11:12:56;;;;;;;8.02;2.97;;;;;;;9.08;68.13;102277.75;3611075;39;20050;-63
2022/12/27 11:15:23;;;;;;;7.45;2.97;;;;;;;8.98;69.09;102277.19;3605852;39;20057;-65
2022/12/27 11:17:58;;;;;;;7.25;3.00;;;;;;;8.94;70.14;102274.63;3605631;39;20058;-65
2022/12/27 11:20:36;;;;;;;5.00;2.80;;;;;;;8.87;69.69;102267.69;3612465;39;20069;-65
2022/12/27 11:29:20;;;;;;;9.95;2.80;;;;;;;8.76;70.14;102260.00;3575591;40;20044;-64
2022/12/27 11:31:49;;;;;;;9.25;2.75;;;;;;;8.70;70.03;102266.44;3552992;40;20051;-64
2022/12/27 11:34:41;;;;;;;6.03;2.70;;;;;;;8.64;71.14;102273.78;3562550;40;20050;-64
2022/12/27 11:37:16;;;;;;;5.78;2.75;;;;;;;8.63;70.67;102266.66;3563572;40;20057;-64
2022/12/27 11:39:45;;;;;;;7.78;2.90;;;;;;;8.58;70.42;102266.81;3562080;40;20053;-64
2022/12/27 11:42:31;;;;;;;5.25;2.85;;;;;;;8.54;70.60;102257.13;3563667;40;20065;-65
2022/12/27 11:45:10;;;;;;;6.57;2.65;;;;;;;8.48;71.10;102262.66;3564393;40;20092;-65
2022/12/27 11:48:03;;;;;;;7.97;2.63;;;;;;;8.46;70.87;102268.03;3567434;40;20063;-66
2022/12/27 11:50:59;;;;;;;7.13;2.70;;;;;;;8.45;71.33;102262.75;3569959;40;20056;-65
2022/12/27 11:53:47;;;;;;;8.27;2.55;;;;;;;8.43;72.06;102260.09;3569703;40;20080;-64
2022/12/27 11:56:31;;;;;;;7.20;2.90;;;;;;;8.39;71.54;102250.41;3566100;40;20119;-64
2022/12/27 11:59:00;;;;;;;;;;;;;;;8.39;72.39;102249.53;3569622;40;20061;-64
2022/12/27 12:01:50;;;;;;;9.73;2.90;;;;;;;8.41;72.09;102250.38;3569221;40;19939;-65
2022/12/27 12:04:36;;;;;;;4.40;2.65;;;;;;;8.37;72.07;102250.44;3567559;40;20048;-64
2022/12/27 12:07:46;;;;;;;6.80;2.55;;;;;;;7.73;72.01;102136.28;3563826;40;20064;-64
2022/12/27 12:11:10;;;;;;;7.97;2.40;;;;;;;8.33;71.64;102232.66;3567752;40;20844;-64
2022/12/27 12:14:26;;;;;;;4.03;2.47;;;;;;;8.33;71.46;102231.78;3563735;40;20056;-64
2022/12/27 12:17:53;;;;;;;7.25;2.50;;;;;;;8.28;71.74;102229.25;3565800;40;20051;-64
2022/12/27 12:20:39;;;;;;;7.45;3.33;;;;;;;8.28;71.64;102215.00;3564564;40;20048;-64
2022/12/27 12:23:15;;;;;;;5.60;2.75;;;;;;;8.29;72.42;102216.75;3565266;40;20057;-64
2022/12/27 12:26:16;;;;;;;6.57;2.80;;;;;;;8.29;72.56;102219.41;3571102;40;20376;-64
2022/12/27 12:29:16;;;;;;;8.40;2.83;;;;;;;8.29;71.87;102224.78;3567840;40;20049;-64
2022/12/27 12:32:21;;;;;;;10.10;2.72;;;;;;;8.34;71.75;102228.19;3565571;40;20071;-64
2022/12/27 12:35:06;;;;;;;6.15;2.90;;;;;;;8.37;72.89;102220.06;3564696;40;20065;-64
2022/12/27 12:37:51;;;;;;;6.60;2.75;;;;;;;8.36;72.04;102220.97;3566899;40;20049;-64
2022/12/27 12:41:08;;;;;;;9.23;2.78;;;;;;;8.36;71.94;102211.13;3542777;40;20065;-64
2022/12/27 12:43:58;;;;;;;8.07;2.70;;;;;;;8.37;71.97;102214.69;3565870;40;20085;-64
2022/12/27 12:46:51;;;;;;;11.30;3.00;;;;;;;8.31;72.35;102207.75;3565642;40;20061;-64
2022/12/27 12:49:57;;;;;;;8.00;3.10;;;;;;;8.29;72.71;102203.34;3564461;40;20591;-64
2022/12/27 12:52:34;;;;;;;6.50;2.60;;;;;;;8.29;73.09;102198.00;3566719;40;20127;-65
2022/12/27 12:55:24;;;;;;;7.13;2.35;;;;;;;8.22;72.67;102186.59;3566860;40;20080;-64
2022/12/27 12:58:41;;;;;;;9.40;2.40;;;;;;;7.99;73.23;102140.84;3567562;40;20081;-64
2022/12/27 13:01:44;;;;;;;5.88;2.80;;;;;;;8.21;73.27;102173.22;3565512;40;20439;-64
2022/12/27 13:04:47;;;;;;;11.13;3.15;;;;;;;8.23;72.50;102166.03;3568140;40;20057;-64
2022/12/27 13:07:39;;;;;;;6.43;2.92;;;;;;;8.23;72.74;102149.97;3564988;40;20404;-64
2022/12/27 13:10:58;;;;;;;6.57;2.83;;;;;;;8.24;73.10;102146.34;3565487;40;20063;-64
2022/12/27 13:14:20;;;;;;;8.70;2.47;;;;;;;8.25;73.16;102148.13;3562284;40;20059;-64
2022/12/27 13:17:09;;;;;;;6.60;2.70;;;;;;;8.25;73.53;102142.75;3567010;40;20048;-64
2022/12/27 13:20:24;;;;;;;8.13;3.17;;;;;;;8.24;73.37;102139.19;3568639;40;20057;-64
2022/12/27 13:23:29;;;;;;;7.85;2.90;;;;;;;8.23;72.67;102144.59;3557334;40;20080;-65
2022/12/27 13:26:29;;;;;;;9.63;3.00;;;;;;;8.21;72.74;102138.41;3567768;40;20094;-65
2022/12/27 13:29:55;;;;;;;4.80;2.35;;;;;;;8.19;73.73;102141.16;3563484;40;20049;-64
2022/12/27 13:32:49;;;;;;;12.77;2.75;;;;;;;8.15;73.18;102136.81;3568551;40;20072;-64
2022/12/27 13:35:20;;;;;;;3.85;2.10;;;;;;;8.14;73.80;102140.41;3566592;40;20052;-64
2022/12/27 13:37:58;;;;;;;11.25;2.95;;;;;;;8.12;74.05;102127.06;3569097;40;20372;-64
2022/12/27 13:41:19;;;;;;;10.55;2.83;;;;;;;8.17;74.04;102109.97;3566639;40;20180;-64
2022/12/27 13:44:19;;;;;;;10.43;2.90;;;;;;;8.26;73.43;102101.66;3553566;40;20059;-64
2022/12/27 13:47:29;;;;;;;6.47;2.65;;;;;;;8.30;73.77;102093.44;3566130;40;20057;-64
2022/12/27 13:50:22;;;;;;;9.85;2.90;;;;;;;8.41;73.12;102092.28;3540827;40;20059;-64
2022/12/27 13:53:16;;;;;;;10.27;3.03;;;;;;;8.50;72.78;102095.53;3565241;40;20100;-64
2022/12/27 13:56:12;;;;;;;5.35;2.28;;;;;;;8.54;73.13;102097.19;3562366;40;20049;-64